createdAt,value
2023-04-30T00:00:12.286Z,0.20
2023-04-30T00:02:40.094Z,0.20
2023-04-30T00:05:07.827Z,0.20
2023-04-30T00:07:35.416Z,0.30
2023-04-30T00:10:03.352Z,0.20
2023-04-30T00:12:31.003Z,0.20
2023-04-30T00:14:58.416Z,0.43
2023-04-30T00:17:25.846Z,0.10
2023-04-30T00:19:53.556Z,0.63
2023-04-30T00:22:21.136Z,0.10
2023-04-30T00:24:48.677Z,0.33
2023-04-30T00:27:16.132Z,0.20
2023-04-30T00:29:43.562Z,0.30
2023-04-30T00:32:13.367Z,0.27
2023-04-30T00:34:41.397Z,0.37
2023-04-30T00:37:08.805Z,0.30
2023-04-30T00:39:36.138Z,0.40
2023-04-30T00:42:03.487Z,0.40
2023-04-30T00:44:30.940Z,0.60
2023-04-30T00:46:58.315Z,0.63
2023-04-30T00:49:26.025Z,1.47
2023-04-30T00:51:54.568Z,0.40
2023-04-30T00:54:22.246Z,0.40
2023-04-30T00:56:49.689Z,0.47
2023-04-30T00:59:17.627Z,0.40
2023-04-30T01:01:45.289Z,0.50
2023-04-30T01:04:12.938Z,0.60
2023-04-30T01:06:40.727Z,0.50
2023-04-30T01:09:08.485Z,0.47
2023-04-30T01:11:53.413Z,0.50
2023-04-30T01:14:34.247Z,0.57
2023-04-30T01:17:12.952Z,0.43
2023-04-30T01:19:45.480Z,0.43
2023-04-30T01:22:26.655Z,0.50
2023-04-30T01:25:32.629Z,0.60
2023-04-30T01:28:05.880Z,0.50
2023-04-30T01:30:34.318Z,0.40
2023-04-30T01:33:02.251Z,0.50
2023-04-30T01:35:41.140Z,0.50
2023-04-30T01:38:35.095Z,0.60
2023-04-30T01:41:16.421Z,0.60
2023-04-30T01:44:07.276Z,0.50
2023-04-30T01:46:35.323Z,0.60
2023-04-30T01:49:12.642Z,0.70
2023-04-30T01:51:46.189Z,0.70
2023-04-30T01:54:46.694Z,0.60
2023-04-30T01:57:21.898Z,0.67
2023-04-30T01:59:49.730Z,0.60
2023-04-30T02:02:17.267Z,0.70
2023-04-30T02:04:44.827Z,0.70
2023-04-30T02:07:17.964Z,1.33
2023-04-30T02:09:45.390Z,0.63
2023-04-30T02:12:12.784Z,0.80
2023-04-30T02:14:40.918Z,0.70
2023-04-30T02:17:08.418Z,0.80
2023-04-30T02:19:35.763Z,0.70
2023-04-30T02:22:03.118Z,0.70
2023-04-30T02:24:30.652Z,0.70
2023-04-30T02:26:58.018Z,0.70
2023-04-30T02:29:25.441Z,0.83
2023-04-30T02:31:52.892Z,1.00
2023-04-30T02:34:20.297Z,0.60
2023-04-30T02:36:47.871Z,0.80
2023-04-30T02:39:15.280Z,0.60
2023-04-30T02:41:42.766Z,0.70
2023-04-30T02:44:10.158Z,0.90
2023-04-30T02:46:37.921Z,0.70
2023-04-30T02:49:05.282Z,0.70
2023-04-30T02:51:33.058Z,0.60
2023-04-30T02:54:00.578Z,1.20
2023-04-30T02:56:31.068Z,0.60
2023-04-30T02:58:58.428Z,0.80
2023-04-30T03:01:25.947Z,0.70
2023-04-30T03:03:53.571Z,1.10
2023-04-30T03:06:21.175Z,0.60
2023-04-30T03:08:48.798Z,0.77
2023-04-30T03:11:16.397Z,0.67
2023-04-30T03:13:44.306Z,0.60
2023-04-30T03:16:13.551Z,0.80
2023-04-30T03:18:40.914Z,0.67
2023-04-30T03:21:08.559Z,0.70
2023-04-30T03:23:36.029Z,0.60
2023-04-30T03:26:03.620Z,0.60
2023-04-30T03:28:31.111Z,0.80
2023-04-30T03:30:59.847Z,0.60
2023-04-30T03:33:27.825Z,0.60
2023-04-30T03:35:55.229Z,0.63
2023-04-30T03:38:22.651Z,0.53
2023-04-30T03:40:50.107Z,0.80
2023-04-30T03:43:17.604Z,0.83
2023-04-30T03:45:45.115Z,0.70
2023-04-30T03:48:12.833Z,0.70
2023-04-30T03:50:40.314Z,0.60
2023-04-30T03:53:07.933Z,0.60
2023-04-30T03:55:35.916Z,0.40
2023-04-30T03:58:05.925Z,1.07
2023-04-30T04:00:33.640Z,0.60
2023-04-30T04:03:01.316Z,0.57
2023-04-30T04:05:29.546Z,0.40
2023-04-30T04:07:57.150Z,0.70
2023-04-30T04:10:24.600Z,0.50
2023-04-30T04:12:52.008Z,0.60
2023-04-30T04:15:19.514Z,0.93
2023-04-30T04:17:49.563Z,0.53
2023-04-30T04:20:17.805Z,0.53
2023-04-30T04:22:45.321Z,0.50
2023-04-30T04:25:14.049Z,0.50
2023-04-30T04:27:41.486Z,0.50
2023-04-30T04:30:09.505Z,0.50
2023-04-30T04:32:47.122Z,0.57
2023-04-30T04:35:23.476Z,0.47
2023-04-30T04:37:50.925Z,0.47
2023-04-30T04:40:18.835Z,0.57
2023-04-30T04:42:48.932Z,0.40
2023-04-30T04:45:16.451Z,0.40
2023-04-30T04:47:44.054Z,0.50
2023-04-30T04:50:11.974Z,0.43
2023-04-30T04:52:39.592Z,0.70
2023-04-30T04:55:07.587Z,0.47
2023-04-30T04:57:34.987Z,0.97
2023-04-30T05:00:02.445Z,0.43
2023-04-30T05:02:30.300Z,0.50
2023-04-30T05:04:57.791Z,0.40
2023-04-30T05:07:25.232Z,1.43
2023-04-30T05:09:53.060Z,0.70
2023-04-30T05:12:21.252Z,1.03
2023-04-30T05:14:49.721Z,0.50
2023-04-30T05:17:17.220Z,0.60
2023-04-30T05:19:44.642Z,0.50
2023-04-30T05:22:12.106Z,0.60
2023-04-30T05:24:39.542Z,0.70
2023-04-30T05:27:06.923Z,0.33
2023-04-30T05:29:34.512Z,0.70
2023-04-30T05:32:02.394Z,0.63
2023-04-30T05:34:30.092Z,0.77
2023-04-30T05:36:57.591Z,0.50
2023-04-30T05:39:25.012Z,0.40
2023-04-30T05:41:53.495Z,0.60
2023-04-30T05:44:21.001Z,0.50
2023-04-30T05:46:50.673Z,0.63
2023-04-30T05:49:18.052Z,0.60
2023-04-30T05:51:45.473Z,1.17
2023-04-30T05:54:13.029Z,0.70
2023-04-30T05:56:40.502Z,0.50
2023-04-30T05:59:10.926Z,0.50
2023-04-30T06:01:38.322Z,0.60
2023-04-30T06:04:05.805Z,0.50
2023-04-30T06:06:33.278Z,0.67
2023-04-30T06:09:00.867Z,0.60
2023-04-30T06:11:28.304Z,1.33
2023-04-30T06:13:56.215Z,0.60
2023-04-30T06:16:24.312Z,0.70
2023-04-30T06:18:53.578Z,0.60
2023-04-30T06:21:21.414Z,0.60
2023-04-30T06:23:48.765Z,1.13
2023-04-30T06:26:16.228Z,1.10
2023-04-30T06:28:43.686Z,0.60
2023-04-30T06:31:11.186Z,0.73
2023-04-30T06:33:38.807Z,0.70
2023-04-30T06:36:06.929Z,0.67
2023-04-30T06:38:36.688Z,0.57
2023-04-30T06:41:04.214Z,0.50
2023-04-30T06:43:31.585Z,0.70
2023-04-30T06:45:59.106Z,1.10
2023-04-30T06:48:26.678Z,0.70
2023-04-30T06:50:54.056Z,0.60
2023-04-30T06:53:22.084Z,0.60
2023-04-30T06:55:49.738Z,0.40
2023-04-30T06:58:17.585Z,0.60
2023-04-30T07:00:45.064Z,0.63
2023-04-30T07:03:12.913Z,0.60
2023-04-30T07:05:41.779Z,0.70
2023-04-30T07:08:09.283Z,0.60
2023-04-30T07:10:36.925Z,0.60
2023-04-30T07:13:04.384Z,0.47
2023-04-30T07:15:34.648Z,0.60
2023-04-30T07:18:05.248Z,0.60
2023-04-30T07:20:32.782Z,0.70
2023-04-30T07:23:00.155Z,0.70
2023-04-30T07:25:27.572Z,0.70
2023-04-30T07:27:55.873Z,0.80
2023-04-30T07:30:25.210Z,0.50
2023-04-30T07:32:52.882Z,0.70
2023-04-30T07:35:20.296Z,0.70
2023-04-30T07:37:48.264Z,0.80
2023-04-30T07:40:28.604Z,0.80
2023-04-30T07:43:02.802Z,1.17
2023-04-30T07:45:30.369Z,0.97
2023-04-30T07:47:57.801Z,1.33
2023-04-30T07:50:25.284Z,0.60
2023-04-30T07:52:52.929Z,0.77
2023-04-30T07:55:20.823Z,0.93
2023-04-30T07:58:16.647Z,0.87
2023-04-30T08:00:44.316Z,1.10
2023-04-30T08:03:12.509Z,1.23
2023-04-30T08:05:41.396Z,0.80
2023-04-30T08:08:09.054Z,0.70
2023-04-30T08:10:37.589Z,0.70
2023-04-30T08:13:06.164Z,1.47
2023-04-30T08:15:35.068Z,1.13
2023-04-30T08:18:03.223Z,0.77
2023-04-30T08:20:30.931Z,0.80
2023-04-30T08:22:58.541Z,0.60
2023-04-30T08:25:26.106Z,1.55
2023-04-30T08:27:53.720Z,0.63
2023-04-30T08:30:21.085Z,0.60
2023-04-30T08:32:49.800Z,0.70
2023-04-30T08:35:18.781Z,0.80
2023-04-30T08:37:46.573Z,0.50
2023-04-30T08:40:17.154Z,0.60
2023-04-30T08:42:50.958Z,0.40
2023-04-30T08:45:20.634Z,0.65
2023-04-30T08:47:51.252Z,0.70
2023-04-30T08:50:19.016Z,0.50
2023-04-30T08:52:46.536Z,0.63
2023-04-30T08:55:14.027Z,0.63
2023-04-30T08:57:41.334Z,1.25
2023-04-30T09:00:10.145Z,0.77
2023-04-30T09:02:44.684Z,1.55
2023-04-30T09:05:13.921Z,1.00
2023-04-30T09:10:23.061Z,1.47
2023-04-30T09:13:03.984Z,0.80
2023-04-30T09:15:32.901Z,0.60
2023-04-30T09:18:30.312Z,0.60
2023-04-30T09:21:02.230Z,1.60
2023-04-30T09:23:30.997Z,0.70
2023-04-30T09:25:58.530Z,0.80
2023-04-30T09:28:27.665Z,0.80
2023-04-30T09:30:59.004Z,0.60
2023-04-30T09:33:30.531Z,0.63
2023-04-30T09:35:58.001Z,0.77
2023-04-30T09:38:30.394Z,0.70
2023-04-30T09:41:01.863Z,1.00
2023-04-30T09:43:31.063Z,0.67
2023-04-30T09:46:01.292Z,0.70
2023-04-30T09:48:29.139Z,0.60
2023-04-30T09:50:57.048Z,0.73
2023-04-30T09:53:24.534Z,0.67
2023-04-30T09:55:52.421Z,0.70
2023-04-30T09:58:20.876Z,0.87
2023-04-30T10:00:50.883Z,0.53
2023-04-30T10:03:19.035Z,0.63
2023-04-30T10:05:51.385Z,0.60
2023-04-30T10:08:28.841Z,0.50
2023-04-30T10:11:03.000Z,0.70
2023-04-30T10:13:36.194Z,1.30
2023-04-30T10:16:10.645Z,0.70
2023-04-30T10:18:43.644Z,0.73
2023-04-30T10:21:14.949Z,0.60
2023-04-30T10:23:43.791Z,0.50
2023-04-30T10:26:16.640Z,0.70
2023-04-30T10:28:44.720Z,0.80
2023-04-30T10:31:13.669Z,0.60
2023-04-30T10:33:54.875Z,0.70
2023-04-30T10:36:34.055Z,1.00
2023-04-30T10:39:04.544Z,1.43
2023-04-30T10:41:32.270Z,0.80
2023-04-30T10:44:02.680Z,0.80
2023-04-30T10:46:30.517Z,0.70
2023-04-30T10:48:58.184Z,0.60
2023-04-30T10:51:58.719Z,0.50
2023-04-30T10:54:28.044Z,0.60
2023-04-30T10:57:12.965Z,0.67
2023-04-30T10:59:47.023Z,0.67
2023-04-30T11:02:20.510Z,0.70
2023-04-30T11:05:06.924Z,0.60
2023-04-30T11:07:34.782Z,0.70
2023-04-30T11:10:02.794Z,0.67
2023-04-30T11:12:30.779Z,0.60
2023-04-30T11:15:20.157Z,0.73
2023-04-30T11:17:50.230Z,0.50
2023-04-30T11:20:24.119Z,0.70
2023-04-30T11:23:19.727Z,0.88
2023-04-30T11:25:57.986Z,0.90
2023-04-30T11:28:26.955Z,0.70
2023-04-30T11:30:57.046Z,0.68
2023-04-30T11:33:29.636Z,0.52
2023-04-30T11:35:58.732Z,0.60
2023-04-30T11:38:37.450Z,0.90
2023-04-30T11:41:05.762Z,0.77
2023-04-30T11:43:34.946Z,0.75
2023-04-30T11:46:20.608Z,1.23
2023-04-30T11:48:48.145Z,0.70
2023-04-30T11:51:20.806Z,0.60
2023-04-30T11:53:49.674Z,0.93
2023-04-30T11:56:22.011Z,0.70
2023-04-30T11:58:53.428Z,0.50
2023-04-30T12:01:21.811Z,0.50
2023-04-30T12:03:51.359Z,0.97
2023-04-30T12:06:24.126Z,1.30
2023-04-30T12:08:59.346Z,0.50
2023-04-30T12:11:31.553Z,0.53
2023-04-30T12:14:07.696Z,0.50
2023-04-30T12:16:42.989Z,0.50
2023-04-30T12:19:10.547Z,0.60
2023-04-30T12:21:40.445Z,0.73
2023-04-30T12:24:08.523Z,0.60
2023-04-30T12:26:40.448Z,0.57
2023-04-30T12:29:16.833Z,0.47
2023-04-30T12:31:45.752Z,0.40
2023-04-30T12:34:14.215Z,1.77
2023-04-30T12:36:47.554Z,0.50
2023-04-30T12:39:16.519Z,1.17
2023-04-30T12:41:45.573Z,0.50
2023-04-30T12:44:17.396Z,0.50
2023-04-30T12:46:47.083Z,0.47
2023-04-30T12:49:34.143Z,0.50
2023-04-30T12:52:08.851Z,0.73
2023-04-30T12:54:37.111Z,1.20
2023-04-30T12:57:07.113Z,0.93
2023-04-30T12:59:37.563Z,0.50
2023-04-30T13:02:13.763Z,0.40
2023-04-30T13:04:43.022Z,0.50
2023-04-30T13:07:11.795Z,0.50
2023-04-30T13:09:39.345Z,0.50
2023-04-30T13:12:07.409Z,0.38
2023-04-30T13:14:35.372Z,0.50
2023-04-30T13:17:06.016Z,0.50
2023-04-30T13:19:34.954Z,0.50
2023-04-30T13:22:02.634Z,0.30
2023-04-30T13:24:31.476Z,0.50
2023-04-30T13:26:59.892Z,0.40
2023-04-30T13:29:28.546Z,0.40
2023-04-30T13:31:56.648Z,0.50
2023-04-30T13:34:27.853Z,0.40
2023-04-30T13:36:55.880Z,0.30
2023-04-30T13:39:23.551Z,0.50
2023-04-30T13:41:51.073Z,0.45
2023-04-30T13:44:18.867Z,0.40
2023-04-30T13:46:46.308Z,0.30
2023-04-30T13:49:16.511Z,0.38
2023-04-30T13:51:43.912Z,0.60
2023-04-30T13:54:11.338Z,0.70
2023-04-30T13:56:39.022Z,0.40
2023-04-30T13:59:09.881Z,0.40
2023-04-30T14:01:37.226Z,0.30
2023-04-30T14:04:05.034Z,0.30
2023-04-30T14:06:32.784Z,0.30
2023-04-30T14:09:00.268Z,0.33
2023-04-30T14:11:27.900Z,0.40
2023-04-30T14:13:55.818Z,0.40
2023-04-30T14:16:23.794Z,0.33
2023-04-30T14:18:51.521Z,0.40
2023-04-30T14:21:18.853Z,0.43
2023-04-30T14:23:49.265Z,0.40
2023-04-30T14:26:16.836Z,0.43
2023-04-30T14:28:45.542Z,0.40
2023-04-30T14:31:13.097Z,0.40
2023-04-30T14:33:41.689Z,0.50
2023-04-30T14:36:09.094Z,0.50
2023-04-30T14:38:36.509Z,0.30
2023-04-30T14:41:03.932Z,0.50
2023-04-30T14:43:32.527Z,0.50
2023-04-30T14:46:03.651Z,0.50
2023-04-30T14:48:34.680Z,0.40
2023-04-30T14:51:05.615Z,0.50
2023-04-30T14:53:33.317Z,0.70
2023-04-30T14:56:00.851Z,0.30
2023-04-30T14:58:30.838Z,0.60
2023-04-30T15:01:01.625Z,0.70
2023-04-30T15:03:29.734Z,0.60
2023-04-30T15:05:57.297Z,0.67
2023-04-30T15:08:25.432Z,0.60
2023-04-30T15:10:53.209Z,0.50
2023-04-30T15:13:20.785Z,1.13
2023-04-30T15:15:49.918Z,1.30
2023-04-30T15:18:17.527Z,0.40
2023-04-30T15:20:45.026Z,0.33
2023-04-30T15:23:12.884Z,0.60
2023-04-30T15:25:40.565Z,0.40
2023-04-30T15:28:08.212Z,1.07
2023-04-30T15:30:35.617Z,0.40
2023-04-30T15:33:03.598Z,0.65
2023-04-30T15:35:31.303Z,0.40
2023-04-30T15:37:58.670Z,0.68
2023-04-30T15:40:28.421Z,0.40
2023-04-30T15:42:55.844Z,0.43
2023-04-30T15:45:25.461Z,1.05
2023-04-30T15:47:53.083Z,0.30
2023-04-30T15:50:20.630Z,0.65
2023-04-30T15:52:48.558Z,0.40
2023-04-30T15:55:16.002Z,0.65
2023-04-30T15:57:43.402Z,0.40
2023-04-30T16:00:13.182Z,0.35
2023-04-30T16:02:41.061Z,0.40
2023-04-30T16:05:09.131Z,0.40
2023-04-30T16:07:37.453Z,0.80
2023-04-30T16:10:06.842Z,0.50
2023-04-30T16:12:34.524Z,0.40
2023-04-30T16:15:02.135Z,0.40
2023-04-30T16:17:31.324Z,0.40
2023-04-30T16:20:00.226Z,0.40
2023-04-30T16:22:28.574Z,0.37
2023-04-30T16:24:56.536Z,0.40
2023-04-30T16:27:24.708Z,0.30
2023-04-30T16:29:52.245Z,0.43
2023-04-30T16:32:19.752Z,0.73
2023-04-30T16:34:47.364Z,0.40
2023-04-30T16:37:14.793Z,0.40
2023-04-30T16:39:42.536Z,0.30
2023-04-30T16:42:10.177Z,0.50
2023-04-30T16:44:37.599Z,0.53
2023-04-30T16:47:05.012Z,0.80
2023-04-30T16:49:33.324Z,1.47
2023-04-30T16:52:02.547Z,0.87
2023-04-30T16:54:29.888Z,0.67
2023-04-30T16:56:57.264Z,0.37
2023-04-30T16:59:24.921Z,0.60
2023-04-30T17:01:56.528Z,0.40
2023-04-30T17:04:23.961Z,0.40
2023-04-30T17:06:51.402Z,0.60
2023-04-30T17:09:20.019Z,0.50
2023-04-30T17:11:47.384Z,0.33
2023-04-30T17:14:14.953Z,0.40
2023-04-30T17:16:42.411Z,0.70
2023-04-30T17:19:09.828Z,0.53
2023-04-30T17:21:37.289Z,0.40
2023-04-30T17:24:05.520Z,0.50
2023-04-30T17:26:32.926Z,0.43
2023-04-30T17:29:00.391Z,0.50
2023-04-30T17:31:30.812Z,0.60
2023-04-30T17:33:58.356Z,0.47
2023-04-30T17:36:28.274Z,0.40
2023-04-30T17:38:56.951Z,1.30
2023-04-30T17:41:24.652Z,1.60
2023-04-30T17:43:52.179Z,1.77
2023-04-30T17:46:19.620Z,1.63
2023-04-30T17:48:47.410Z,1.90
2023-04-30T17:51:14.995Z,3.00
2023-04-30T17:53:42.514Z,6.13
2023-04-30T17:56:10.178Z,6.13
2023-04-30T17:58:39.801Z,10.07
2023-04-30T18:01:08.021Z,6.50
2023-04-30T18:03:36.698Z,6.87
2023-04-30T18:06:04.318Z,6.93
2023-04-30T18:08:32.915Z,6.10
2023-04-30T18:11:00.488Z,4.97
2023-04-30T18:13:28.180Z,3.47
2023-04-30T18:15:55.806Z,3.43
2023-04-30T18:18:23.501Z,3.10
2023-04-30T18:20:52.079Z,3.73
2023-04-30T18:23:19.428Z,3.50
2023-04-30T18:25:47.798Z,4.03
2023-04-30T18:28:15.642Z,3.10
2023-04-30T18:30:43.027Z,3.37
2023-04-30T18:33:11.086Z,3.63
2023-04-30T18:35:39.002Z,3.03
2023-04-30T18:38:08.417Z,3.00
2023-04-30T18:40:36.676Z,2.50
2023-04-30T18:43:04.089Z,2.40
2023-04-30T18:45:31.550Z,2.77
2023-04-30T18:47:59.060Z,2.50
2023-04-30T18:50:27.875Z,2.10
2023-04-30T18:52:55.355Z,2.93
2023-04-30T18:55:23.366Z,2.67
2023-04-30T18:57:51.825Z,2.60
2023-04-30T19:00:19.728Z,4.97
2023-04-30T19:02:47.314Z,7.17
2023-04-30T19:05:15.087Z,2.70
2023-04-30T19:07:42.869Z,2.87
2023-04-30T19:10:10.817Z,3.03
2023-04-30T19:12:38.659Z,2.40
2023-04-30T19:15:08.472Z,2.47
2023-04-30T19:17:36.658Z,2.40
2023-04-30T19:20:06.062Z,3.40
2023-04-30T19:22:33.714Z,2.70
2023-04-30T19:25:02.069Z,2.83
2023-04-30T19:27:29.961Z,2.77
2023-04-30T19:30:00.363Z,2.23
2023-04-30T19:32:27.910Z,2.00
2023-04-30T19:34:55.432Z,2.07
2023-04-30T19:37:26.420Z,1.80
2023-04-30T19:39:55.723Z,2.17
2023-04-30T19:42:23.555Z,2.20
2023-04-30T19:44:53.543Z,2.10
2023-04-30T19:47:21.603Z,1.80
2023-04-30T19:49:49.991Z,2.10
2023-04-30T19:52:20.579Z,1.90
2023-04-30T19:54:50.556Z,1.80
2023-04-30T19:57:18.960Z,1.93
2023-04-30T19:59:47.601Z,1.80
2023-04-30T20:02:16.306Z,1.93
2023-04-30T20:04:44.396Z,1.90
2023-04-30T20:07:12.557Z,2.03
2023-04-30T20:09:40.236Z,1.80
2023-04-30T20:12:08.084Z,2.43
2023-04-30T20:14:36.497Z,2.20
2023-04-30T20:17:05.772Z,2.10
2023-04-30T20:19:33.891Z,2.00
2023-04-30T20:22:03.933Z,2.13
2023-04-30T20:24:33.708Z,1.90
2023-04-30T20:27:01.177Z,2.27
2023-04-30T20:29:35.234Z,2.20
2023-04-30T20:32:05.683Z,2.00
2023-04-30T20:34:34.616Z,1.90
2023-04-30T20:37:04.798Z,2.40
2023-04-30T20:39:32.347Z,2.30
2023-04-30T20:42:01.848Z,2.60
2023-04-30T20:44:29.313Z,3.23
2023-04-30T20:46:57.010Z,2.23
2023-04-30T20:49:27.158Z,2.30
2023-04-30T20:52:00.197Z,2.37
2023-04-30T20:54:28.648Z,2.27
2023-04-30T20:56:56.057Z,2.30
2023-04-30T20:59:23.527Z,3.03
2023-04-30T21:01:51.146Z,1.90
2023-04-30T21:04:21.889Z,2.47
2023-04-30T21:06:50.025Z,2.70
2023-04-30T21:09:17.764Z,2.27
2023-04-30T21:11:45.678Z,2.33
2023-04-30T21:14:13.230Z,3.27
2023-04-30T21:16:41.475Z,2.90
2023-04-30T21:19:10.474Z,2.70
2023-04-30T21:21:37.995Z,2.80
2023-04-30T21:24:05.843Z,3.00
2023-04-30T21:26:33.764Z,3.63
2023-04-30T21:29:03.232Z,3.00
2023-04-30T21:31:31.194Z,3.27
2023-04-30T21:33:58.779Z,3.00
2023-04-30T21:36:30.308Z,2.90
2023-04-30T21:38:58.963Z,2.90
2023-04-30T21:41:28.303Z,2.70
2023-04-30T21:43:55.922Z,2.87
2023-04-30T21:46:23.350Z,3.00
2023-04-30T21:48:51.041Z,3.00
2023-04-30T21:51:18.677Z,2.67
2023-04-30T21:53:46.659Z,3.00
2023-04-30T21:56:14.365Z,3.60
2023-04-30T21:58:41.811Z,3.10
2023-04-30T22:01:09.193Z,3.30
2023-04-30T22:03:36.759Z,3.13
2023-04-30T22:06:04.597Z,3.57
2023-04-30T22:08:32.146Z,3.10
2023-04-30T22:11:01.255Z,3.53
2023-04-30T22:13:29.644Z,3.30
2023-04-30T22:15:57.601Z,3.43
2023-04-30T22:18:25.273Z,3.27
2023-04-30T22:20:53.256Z,3.13
2023-04-30T22:23:23.825Z,3.23
2023-04-30T22:25:51.234Z,3.70
2023-04-30T22:28:19.574Z,4.10
2023-04-30T22:30:47.361Z,3.70
2023-04-30T22:33:14.979Z,3.70
2023-04-30T22:35:42.806Z,3.57
2023-04-30T22:38:11.182Z,3.17
2023-04-30T22:40:42.261Z,3.40
2023-04-30T22:43:10.262Z,3.37
2023-04-30T22:45:40.587Z,3.40
2023-04-30T22:48:11.305Z,3.57
2023-04-30T22:50:39.041Z,5.10
2023-04-30T22:53:06.779Z,3.40
2023-04-30T22:55:35.262Z,3.73
2023-04-30T22:58:02.723Z,3.50
2023-04-30T23:00:30.287Z,2.97
2023-04-30T23:02:58.756Z,3.50
2023-04-30T23:05:26.535Z,4.60
2023-04-30T23:07:54.438Z,2.90
2023-04-30T23:10:21.959Z,3.00
2023-04-30T23:12:49.473Z,3.20
2023-04-30T23:15:18.085Z,3.20
2023-04-30T23:17:45.770Z,3.20
2023-04-30T23:20:14.248Z,3.87
2023-04-30T23:22:41.937Z,3.10
2023-04-30T23:25:10.637Z,3.03
2023-04-30T23:27:38.701Z,3.30
2023-04-30T23:30:07.139Z,2.83
2023-04-30T23:32:36.315Z,2.60
2023-04-30T23:35:07.315Z,3.97
2023-04-30T23:37:35.882Z,3.10
2023-04-30T23:40:08.633Z,3.07
2023-04-30T23:42:36.941Z,3.50
2023-04-30T23:45:05.040Z,2.93
2023-04-30T23:47:37.063Z,3.37
2023-04-30T23:50:08.121Z,3.10
2023-04-30T23:52:37.243Z,3.30
2023-04-30T23:55:05.494Z,3.30
2023-04-30T23:57:32.918Z,3.50
